createdAt,value
2022-08-31T00:01:31.983Z,60.90
2022-08-31T00:04:03.442Z,60.90
2022-08-31T00:06:32.541Z,60.90
2022-08-31T00:09:03.077Z,60.90
2022-08-31T00:11:31.781Z,60.90
2022-08-31T00:14:04.112Z,60.90
2022-08-31T00:16:35.680Z,60.90
2022-08-31T00:19:04.080Z,60.90
2022-08-31T00:21:32.294Z,60.90
2022-08-31T00:24:04.109Z,60.90
2022-08-31T00:26:32.242Z,60.90
2022-08-31T00:29:00.401Z,60.90
2022-08-31T00:31:29.001Z,60.90
2022-08-31T00:33:57.223Z,60.90
2022-08-31T00:36:27.082Z,60.90
2022-08-31T00:38:56.846Z,60.90
2022-08-31T00:41:28.706Z,60.90
2022-08-31T00:44:00.293Z,60.90
2022-08-31T00:46:30.821Z,60.90
2022-08-31T00:49:10.772Z,60.90
2022-08-31T00:51:42.680Z,61.00
2022-08-31T00:54:13.498Z,61.00
2022-08-31T00:56:44.875Z,61.00
2022-08-31T00:59:14.831Z,61.00
2022-08-31T01:01:43.011Z,61.00
2022-08-31T01:04:11.464Z,61.00
2022-08-31T01:06:40.278Z,61.00
2022-08-31T01:09:09.623Z,61.00
2022-08-31T01:11:39.718Z,61.00
2022-08-31T01:14:10.941Z,61.00
2022-08-31T01:16:42.785Z,61.00
2022-08-31T01:19:18.689Z,61.00
2022-08-31T01:21:53.915Z,61.00
2022-08-31T01:24:26.003Z,61.00
2022-08-31T01:26:57.287Z,61.00
2022-08-31T01:29:25.521Z,61.10
2022-08-31T01:31:53.668Z,61.10
2022-08-31T01:34:24.928Z,61.00
2022-08-31T01:36:54.478Z,61.00
2022-08-31T01:39:24.002Z,61.10
2022-08-31T01:41:52.286Z,61.10
2022-08-31T01:44:22.825Z,61.10
2022-08-31T01:46:51.700Z,61.10
2022-08-31T01:49:22.810Z,61.10
2022-08-31T01:51:52.293Z,61.10
2022-08-31T01:54:22.365Z,61.10
2022-08-31T01:56:52.226Z,61.10
2022-08-31T01:59:28.763Z,61.10
2022-08-31T02:02:06.613Z,61.10
2022-08-31T02:04:35.101Z,61.10
2022-08-31T02:07:03.310Z,61.10
2022-08-31T02:09:34.669Z,61.10
2022-08-31T02:12:04.796Z,61.10
2022-08-31T02:14:34.559Z,61.10
2022-08-31T02:17:02.838Z,61.10
2022-08-31T02:19:31.003Z,61.10
2022-08-31T02:21:59.139Z,61.10
2022-08-31T02:24:28.519Z,61.20
2022-08-31T02:26:58.031Z,61.20
2022-08-31T02:29:28.755Z,61.20
2022-08-31T02:31:58.437Z,61.20
2022-08-31T02:34:28.024Z,61.20
2022-08-31T02:36:56.645Z,61.20
2022-08-31T02:39:25.237Z,61.20
2022-08-31T02:41:53.446Z,61.20
2022-08-31T02:44:21.660Z,61.20
2022-08-31T02:46:51.329Z,61.20
2022-08-31T02:49:48.825Z,61.20
2022-08-31T02:52:17.318Z,61.20
2022-08-31T02:54:45.856Z,61.20
2022-08-31T02:57:14.038Z,61.20
2022-08-31T02:59:42.205Z,61.20
2022-08-31T03:02:11.982Z,61.20
2022-08-31T03:04:42.011Z,61.20
2022-08-31T03:07:10.830Z,61.30
2022-08-31T03:09:38.992Z,61.20
2022-08-31T03:12:07.422Z,61.20
2022-08-31T03:14:36.220Z,61.20
2022-08-31T03:17:04.462Z,61.30
2022-08-31T03:19:35.713Z,61.30
2022-08-31T03:22:05.230Z,61.30
2022-08-31T03:24:33.396Z,61.20
2022-08-31T03:27:01.655Z,61.20
2022-08-31T03:29:29.883Z,61.30
2022-08-31T03:32:18.674Z,61.30
2022-08-31T03:34:54.929Z,61.20
2022-08-31T03:37:23.077Z,61.30
2022-08-31T03:39:52.197Z,61.30
2022-08-31T03:42:20.914Z,61.30
2022-08-31T03:44:49.851Z,61.30
2022-08-31T03:47:23.583Z,61.30
2022-08-31T03:49:57.962Z,61.30
2022-08-31T03:52:30.705Z,61.30
2022-08-31T03:55:06.697Z,61.30
2022-08-31T03:57:36.467Z,61.30
2022-08-31T04:00:07.258Z,61.30
2022-08-31T04:02:41.634Z,61.30
2022-08-31T04:05:33.323Z,61.30
2022-08-31T04:08:13.806Z,61.30
2022-08-31T04:11:00.940Z,61.30
2022-08-31T04:13:34.967Z,61.30
2022-08-31T04:16:24.337Z,61.30
2022-08-31T04:18:52.538Z,61.30
2022-08-31T04:21:25.300Z,61.30
2022-08-31T04:23:55.433Z,61.30
2022-08-31T04:26:29.282Z,61.30
2022-08-31T04:28:57.788Z,61.30
2022-08-31T04:31:27.774Z,61.30
2022-08-31T04:33:57.690Z,61.30
2022-08-31T04:36:29.239Z,61.30
2022-08-31T04:39:00.228Z,61.30
2022-08-31T04:41:30.684Z,61.30
2022-08-31T04:44:00.507Z,61.30
2022-08-31T04:46:29.513Z,61.30
2022-08-31T04:48:58.070Z,61.30
2022-08-31T04:51:29.680Z,61.30
2022-08-31T04:53:59.061Z,61.30
2022-08-31T04:56:29.391Z,61.30
2022-08-31T04:59:00.034Z,61.30
2022-08-31T05:01:36.190Z,61.30
2022-08-31T05:04:24.047Z,61.40
2022-08-31T05:06:53.796Z,61.30
2022-08-31T05:09:24.049Z,61.40
2022-08-31T05:11:55.052Z,61.40
2022-08-31T05:14:24.840Z,61.40
2022-08-31T05:17:03.165Z,61.40
2022-08-31T05:19:35.994Z,61.40
2022-08-31T05:22:08.715Z,61.40
2022-08-31T05:24:38.944Z,61.40
2022-08-31T05:27:07.887Z,61.40
2022-08-31T05:29:36.087Z,61.40
2022-08-31T05:32:22.697Z,61.40
2022-08-31T05:34:54.296Z,61.40
2022-08-31T05:37:24.433Z,61.40
2022-08-31T05:39:52.942Z,61.40
2022-08-31T05:42:21.156Z,61.40
2022-08-31T05:44:49.433Z,61.40
2022-08-31T05:47:18.263Z,61.40
2022-08-31T05:49:46.975Z,61.40
2022-08-31T05:52:19.953Z,61.40
2022-08-31T05:54:55.379Z,61.40
2022-08-31T05:57:26.636Z,61.40
2022-08-31T05:59:58.612Z,61.40
2022-08-31T06:02:27.575Z,61.40
2022-08-31T06:04:58.868Z,61.40
2022-08-31T06:07:27.483Z,61.40
2022-08-31T06:10:01.368Z,61.40
2022-08-31T06:12:34.219Z,61.40
2022-08-31T06:15:05.300Z,61.40
2022-08-31T06:17:34.845Z,61.40
2022-08-31T06:20:04.692Z,61.40
2022-08-31T06:22:35.143Z,61.40
2022-08-31T06:25:07.117Z,61.40
2022-08-31T06:27:38.792Z,61.40
2022-08-31T06:30:09.013Z,61.40
2022-08-31T06:32:37.557Z,61.40
2022-08-31T06:35:07.380Z,61.40
2022-08-31T06:37:56.797Z,61.40
2022-08-31T06:40:49.749Z,61.40
2022-08-31T06:43:40.873Z,61.40
2022-08-31T06:46:23.520Z,61.40
2022-08-31T06:49:10.983Z,61.40
2022-08-31T06:51:39.954Z,61.40
2022-08-31T06:54:28.908Z,61.40
2022-08-31T06:57:17.569Z,61.40
2022-08-31T07:00:04.772Z,61.40
2022-08-31T07:02:35.796Z,61.30
2022-08-31T07:05:05.207Z,61.30
2022-08-31T07:07:33.935Z,61.30
2022-08-31T07:10:02.411Z,61.30
2022-08-31T07:12:31.996Z,61.30
2022-08-31T07:15:00.208Z,61.30
2022-08-31T07:17:29.358Z,61.30
2022-08-31T07:19:58.127Z,61.30
2022-08-31T07:22:27.335Z,61.20
2022-08-31T07:25:07.963Z,61.20
2022-08-31T07:27:37.547Z,61.20
2022-08-31T07:30:07.710Z,61.20
2022-08-31T07:32:35.931Z,61.20
2022-08-31T07:35:04.136Z,61.10
2022-08-31T07:37:49.596Z,61.10
2022-08-31T07:40:36.464Z,61.10
2022-08-31T07:43:06.720Z,61.10
2022-08-31T07:45:39.191Z,61.10
2022-08-31T07:48:08.852Z,61.10
2022-08-31T07:50:59.653Z,61.10
2022-08-31T07:53:47.388Z,61.10
2022-08-31T07:56:34.898Z,61.10
2022-08-31T07:59:14.923Z,61.10
2022-08-31T08:01:45.105Z,61.10
2022-08-31T08:04:25.293Z,61.00
2022-08-31T08:07:13.100Z,61.00
2022-08-31T08:10:14.454Z,61.00
2022-08-31T08:12:57.186Z,61.00
2022-08-31T08:15:40.254Z,61.00
2022-08-31T08:18:44.265Z,61.00
2022-08-31T08:21:14.773Z,61.00
2022-08-31T08:23:44.207Z,60.90
2022-08-31T08:26:35.215Z,61.00
2022-08-31T08:29:20.511Z,61.00
2022-08-31T08:31:53.027Z,61.00
2022-08-31T08:34:31.583Z,61.00
2022-08-31T08:37:01.431Z,61.00
2022-08-31T08:39:29.628Z,60.90
2022-08-31T08:42:14.102Z,60.90
2022-08-31T08:44:44.694Z,61.00
2022-08-31T08:47:19.027Z,60.90
2022-08-31T08:49:54.860Z,60.90
2022-08-31T08:52:31.201Z,60.90
2022-08-31T08:55:03.850Z,60.90
2022-08-31T08:57:34.876Z,60.90
2022-08-31T09:00:10.814Z,60.90
2022-08-31T09:02:48.014Z,60.90
2022-08-31T09:05:42.891Z,60.90
2022-08-31T09:09:08.218Z,60.90
2022-08-31T09:11:52.561Z,61.00
2022-08-31T09:14:33.913Z,61.00
2022-08-31T09:17:10.253Z,61.00
2022-08-31T09:20:01.724Z,61.00
2022-08-31T09:22:33.984Z,60.90
2022-08-31T09:25:03.607Z,61.00
2022-08-31T09:28:11.187Z,61.00
2022-08-31T09:30:52.257Z,61.00
2022-08-31T09:33:23.304Z,61.00
2022-08-31T09:35:56.824Z,61.10
2022-08-31T09:38:30.239Z,61.10
2022-08-31T09:40:58.917Z,61.10
2022-08-31T09:43:38.590Z,61.10
2022-08-31T09:46:11.708Z,61.10
2022-08-31T09:48:44.412Z,61.10
2022-08-31T09:51:25.524Z,61.10
2022-08-31T09:54:11.866Z,61.10
2022-08-31T09:56:55.545Z,61.10
2022-08-31T09:59:34.082Z,61.10
2022-08-31T10:02:02.882Z,61.10
2022-08-31T10:04:38.090Z,61.10
2022-08-31T10:07:22.104Z,61.10
2022-08-31T10:09:57.903Z,61.10
2022-08-31T10:12:40.837Z,61.10
2022-08-31T10:15:15.768Z,61.10
2022-08-31T10:17:51.766Z,61.10
2022-08-31T10:20:26.373Z,61.10
2022-08-31T10:23:08.879Z,61.10
2022-08-31T10:25:48.123Z,61.10
2022-08-31T10:28:19.849Z,61.10
2022-08-31T10:30:56.109Z,61.10
2022-08-31T10:33:49.851Z,61.10
2022-08-31T10:36:18.165Z,61.10
2022-08-31T10:38:50.616Z,61.10
2022-08-31T10:41:23.564Z,61.10
2022-08-31T10:44:00.176Z,61.10
2022-08-31T10:46:31.137Z,61.10
2022-08-31T10:49:00.216Z,61.10
2022-08-31T10:51:37.809Z,61.10
2022-08-31T10:54:28.790Z,61.10
2022-08-31T10:57:07.733Z,61.10
2022-08-31T10:59:41.506Z,61.10
2022-08-31T11:02:38.899Z,61.10
2022-08-31T11:05:22.955Z,61.10
2022-08-31T11:07:59.182Z,61.00
2022-08-31T11:10:42.403Z,61.00
2022-08-31T11:13:20.653Z,61.00
2022-08-31T11:16:19.992Z,61.00
2022-08-31T11:19:12.580Z,61.00
2022-08-31T11:22:13.284Z,61.00
2022-08-31T11:25:00.387Z,61.00
2022-08-31T11:27:36.989Z,60.90
2022-08-31T11:30:08.825Z,60.90
2022-08-31T11:32:42.993Z,60.90
2022-08-31T11:35:11.307Z,60.90
2022-08-31T11:38:00.624Z,60.90
2022-08-31T11:41:11.229Z,60.90
2022-08-31T11:43:53.798Z,60.80
2022-08-31T11:46:45.780Z,60.90
2022-08-31T11:49:55.805Z,60.90
2022-08-31T11:52:43.130Z,60.90
2022-08-31T11:55:30.117Z,60.80
2022-08-31T11:58:31.790Z,60.80
2022-08-31T12:01:12.491Z,60.80
2022-08-31T12:03:53.023Z,60.70
2022-08-31T12:07:06.789Z,60.70
2022-08-31T12:10:23.012Z,60.60
2022-08-31T12:13:31.169Z,60.60
2022-08-31T12:16:30.080Z,60.60
2022-08-31T12:19:40.026Z,60.60
2022-08-31T12:22:47.921Z,60.50
2022-08-31T12:25:27.191Z,60.50
2022-08-31T12:28:06.741Z,60.50
2022-08-31T12:30:35.170Z,60.50
2022-08-31T12:33:11.165Z,60.40
2022-08-31T12:35:39.866Z,60.40
2022-08-31T12:38:10.502Z,60.40
2022-08-31T12:40:45.682Z,60.40
2022-08-31T12:43:19.148Z,60.30
2022-08-31T12:46:30.143Z,60.30
2022-08-31T12:49:17.368Z,60.30
2022-08-31T12:51:49.155Z,60.30
2022-08-31T12:54:49.611Z,60.20
2022-08-31T12:57:36.968Z,60.20
2022-08-31T13:00:11.697Z,60.20
2022-08-31T13:02:43.545Z,60.20
2022-08-31T13:05:21.830Z,60.10
2022-08-31T13:07:50.499Z,60.10
2022-08-31T13:10:29.867Z,60.10
2022-08-31T13:13:00.577Z,60.10
2022-08-31T13:15:31.208Z,60.10
2022-08-31T13:18:02.142Z,60.10
2022-08-31T13:20:43.476Z,60.00
2022-08-31T13:23:14.636Z,60.00
2022-08-31T13:25:48.396Z,60.00
2022-08-31T13:28:26.010Z,60.00
2022-08-31T13:31:03.405Z,60.00
2022-08-31T13:33:41.261Z,60.00
2022-08-31T13:36:32.148Z,59.90
2022-08-31T13:39:03.659Z,59.90
2022-08-31T13:41:38.407Z,59.90
2022-08-31T13:44:09.816Z,59.80
2022-08-31T13:46:44.581Z,59.90
2022-08-31T13:49:30.936Z,59.90
2022-08-31T13:52:01.001Z,59.80
2022-08-31T13:54:32.162Z,59.90
2022-08-31T13:57:19.585Z,59.80
2022-08-31T13:59:48.837Z,59.80
2022-08-31T14:02:36.773Z,59.90
2022-08-31T14:05:12.812Z,59.80
2022-08-31T14:07:57.452Z,59.90
2022-08-31T14:10:28.306Z,59.90
2022-08-31T14:12:59.936Z,59.90
2022-08-31T14:15:39.099Z,59.90
2022-08-31T14:18:25.744Z,59.90
2022-08-31T14:21:22.671Z,59.90
2022-08-31T14:23:55.932Z,59.90
2022-08-31T14:26:28.983Z,59.90
2022-08-31T14:29:00.241Z,60.00
2022-08-31T14:31:37.137Z,60.00
2022-08-31T14:34:23.135Z,60.00
2022-08-31T14:36:55.800Z,60.00
2022-08-31T14:39:29.920Z,60.00
2022-08-31T14:42:01.552Z,60.00
2022-08-31T14:44:32.973Z,60.00
2022-08-31T14:47:01.517Z,59.90
2022-08-31T14:49:35.958Z,59.90
2022-08-31T14:52:06.429Z,59.90
2022-08-31T14:54:37.566Z,60.00
2022-08-31T14:57:10.072Z,60.00
2022-08-31T14:59:39.763Z,60.00
2022-08-31T15:02:10.043Z,60.00
2022-08-31T15:04:43.233Z,59.90
2022-08-31T15:07:14.949Z,59.90
2022-08-31T15:09:46.762Z,59.80
2022-08-31T15:12:16.007Z,59.80
2022-08-31T15:14:45.335Z,59.80
2022-08-31T15:17:19.300Z,59.70
2022-08-31T15:19:52.143Z,59.70
2022-08-31T15:22:20.584Z,59.70
2022-08-31T15:24:50.210Z,59.70
2022-08-31T15:27:18.737Z,59.70
2022-08-31T15:29:49.736Z,59.70
2022-08-31T15:32:18.853Z,59.70
2022-08-31T15:34:53.498Z,59.70
2022-08-31T15:37:22.514Z,59.70
2022-08-31T15:39:52.049Z,59.70
2022-08-31T15:42:21.355Z,59.70
2022-08-31T15:44:56.049Z,59.70
2022-08-31T15:47:43.511Z,59.70
2022-08-31T15:50:12.056Z,59.70
2022-08-31T15:52:43.845Z,59.70
2022-08-31T15:55:17.010Z,59.70
2022-08-31T15:57:45.204Z,59.70
2022-08-31T16:00:14.545Z,59.80
2022-08-31T16:02:43.196Z,59.80
2022-08-31T16:05:13.517Z,59.80
2022-08-31T16:07:43.124Z,59.80
2022-08-31T16:10:15.628Z,59.80
2022-08-31T16:12:50.414Z,59.80
2022-08-31T16:15:20.388Z,59.80
2022-08-31T16:17:51.522Z,59.80
2022-08-31T16:20:19.787Z,59.70
2022-08-31T16:22:48.305Z,59.70
2022-08-31T16:25:17.631Z,59.70
2022-08-31T16:27:50.604Z,59.80
2022-08-31T16:30:18.866Z,59.80
2022-08-31T16:32:51.723Z,59.90
2022-08-31T16:35:20.457Z,59.80
2022-08-31T16:37:50.383Z,59.80
2022-08-31T16:40:19.219Z,59.80
2022-08-31T16:42:48.871Z,59.80
2022-08-31T16:45:17.099Z,59.90
2022-08-31T16:47:45.249Z,59.90
2022-08-31T16:50:12.943Z,60.00
2022-08-31T16:52:44.535Z,60.00
2022-08-31T16:55:16.062Z,59.90
2022-08-31T16:57:44.685Z,59.90
2022-08-31T17:00:15.094Z,60.10
2022-08-31T17:02:43.322Z,60.30
2022-08-31T17:05:12.901Z,60.40
2022-08-31T17:07:42.804Z,60.50
2022-08-31T17:10:11.393Z,60.50
2022-08-31T17:12:42.043Z,60.60
2022-08-31T17:15:13.898Z,60.50
2022-08-31T17:17:47.985Z,60.60
2022-08-31T17:20:17.520Z,60.60
2022-08-31T17:22:46.011Z,60.60
2022-08-31T17:25:14.886Z,60.70
2022-08-31T17:27:43.083Z,60.70
2022-08-31T17:30:16.952Z,60.70
2022-08-31T17:32:47.110Z,60.70
2022-08-31T17:35:18.460Z,60.70
2022-08-31T17:37:47.891Z,60.70
2022-08-31T17:40:16.777Z,60.70
2022-08-31T17:42:45.467Z,60.60
2022-08-31T17:45:17.483Z,60.70
2022-08-31T17:47:46.949Z,60.70
2022-08-31T17:50:17.674Z,60.70
2022-08-31T17:52:47.293Z,60.60
2022-08-31T17:55:15.875Z,60.60
2022-08-31T17:57:44.168Z,60.60
2022-08-31T18:00:14.850Z,60.60
2022-08-31T18:02:43.489Z,60.70
2022-08-31T18:05:15.540Z,60.80
2022-08-31T18:07:43.763Z,60.80
2022-08-31T18:10:12.651Z,60.80
2022-08-31T18:12:42.093Z,60.90
2022-08-31T18:15:12.186Z,60.90
2022-08-31T18:17:40.561Z,60.90
2022-08-31T18:20:10.673Z,61.00
2022-08-31T18:22:40.963Z,61.00
2022-08-31T18:25:10.007Z,61.00
2022-08-31T18:27:38.242Z,61.00
2022-08-31T18:30:08.415Z,61.00
2022-08-31T18:32:36.908Z,61.00
2022-08-31T18:35:14.205Z,61.00
2022-08-31T18:37:44.786Z,61.10
2022-08-31T18:40:31.338Z,61.10
2022-08-31T18:43:16.774Z,61.10
2022-08-31T18:45:49.510Z,61.10
2022-08-31T18:48:32.066Z,61.10
2022-08-31T18:51:02.982Z,61.10
2022-08-31T18:53:34.573Z,61.10
2022-08-31T18:56:26.530Z,61.20
2022-08-31T18:58:57.263Z,61.20
2022-08-31T19:01:25.906Z,61.20
2022-08-31T19:03:57.785Z,61.20
2022-08-31T19:06:29.170Z,61.20
2022-08-31T19:08:58.877Z,61.20
2022-08-31T19:11:27.291Z,61.20
2022-08-31T19:13:55.603Z,61.20
2022-08-31T19:16:28.814Z,61.20
2022-08-31T19:18:58.535Z,61.20
2022-08-31T19:21:28.516Z,61.20
2022-08-31T19:24:00.330Z,61.30
2022-08-31T19:26:31.457Z,61.30
2022-08-31T19:29:00.225Z,61.20
2022-08-31T19:31:30.120Z,61.30
2022-08-31T19:33:58.425Z,61.30
2022-08-31T19:36:28.616Z,61.30
2022-08-31T19:38:59.664Z,61.30
2022-08-31T19:41:28.861Z,61.30
2022-08-31T19:44:08.148Z,61.30
2022-08-31T19:46:38.120Z,61.30
2022-08-31T19:49:10.907Z,61.30
2022-08-31T19:51:40.209Z,61.30
2022-08-31T19:54:12.317Z,61.30
2022-08-31T19:56:43.646Z,61.30
2022-08-31T19:59:13.121Z,61.30
2022-08-31T20:01:41.480Z,61.30
2022-08-31T20:04:15.895Z,61.30
2022-08-31T20:06:46.319Z,61.30
2022-08-31T20:09:16.729Z,61.30
2022-08-31T20:11:47.516Z,61.40
2022-08-31T20:14:16.895Z,61.30
2022-08-31T20:16:46.470Z,61.40
2022-08-31T20:19:24.541Z,61.40
2022-08-31T20:21:54.164Z,61.40
2022-08-31T20:24:25.621Z,61.50
2022-08-31T20:26:55.474Z,61.50
2022-08-31T20:29:25.243Z,61.50
2022-08-31T20:31:55.305Z,61.50
2022-08-31T20:34:27.936Z,61.50
2022-08-31T20:37:01.122Z,61.50
2022-08-31T20:39:33.109Z,61.60
2022-08-31T20:42:03.152Z,61.60
2022-08-31T20:44:33.637Z,61.60
2022-08-31T20:47:21.265Z,61.60
2022-08-31T20:49:54.689Z,61.60
2022-08-31T20:52:24.685Z,61.60
2022-08-31T20:55:01.705Z,61.70
2022-08-31T20:57:31.752Z,61.70
2022-08-31T21:00:04.391Z,61.70
2022-08-31T21:02:34.099Z,61.70
2022-08-31T21:07:52.304Z,61.70
2022-08-31T21:10:36.184Z,61.70
2022-08-31T21:13:07.027Z,61.70
2022-08-31T21:15:35.297Z,61.70
2022-08-31T21:18:03.594Z,61.70
2022-08-31T21:20:32.371Z,61.70
2022-08-31T21:23:00.497Z,61.80
2022-08-31T21:25:30.090Z,61.80
2022-08-31T21:27:59.947Z,61.80
2022-08-31T21:30:29.416Z,61.80
2022-08-31T21:32:57.565Z,61.80
2022-08-31T21:35:26.697Z,61.80
2022-08-31T21:37:55.958Z,61.80
2022-08-31T21:40:24.182Z,61.80
2022-08-31T21:42:53.766Z,61.80
2022-08-31T21:45:25.318Z,61.80
2022-08-31T21:47:53.556Z,61.80
2022-08-31T21:50:21.701Z,61.80
2022-08-31T21:52:53.787Z,61.80
2022-08-31T21:55:23.419Z,61.80
2022-08-31T21:57:52.985Z,61.80
2022-08-31T22:00:29.111Z,61.80
2022-08-31T22:02:58.489Z,61.80
2022-08-31T22:05:31.652Z,61.80
2022-08-31T22:08:01.013Z,61.80
2022-08-31T22:10:30.888Z,61.80
2022-08-31T22:13:00.845Z,61.90
2022-08-31T22:15:29.113Z,61.80
2022-08-31T22:18:25.825Z,61.90
2022-08-31T22:20:47.796Z,61.90
2022-08-31T22:23:16.051Z,61.90
2022-08-31T22:25:44.248Z,61.90
2022-08-31T22:28:14.963Z,61.90
2022-08-31T22:30:44.336Z,61.80
2022-08-31T22:33:12.635Z,61.80
2022-08-31T22:35:40.848Z,61.80
2022-08-31T22:38:10.605Z,61.70
2022-08-31T22:40:39.608Z,61.80
2022-08-31T22:43:09.747Z,61.70
2022-08-31T22:45:48.173Z,61.80
2022-08-31T22:48:17.019Z,61.80
2022-08-31T22:50:45.179Z,61.80
2022-08-31T22:53:14.230Z,61.80
2022-08-31T22:55:43.058Z,61.80
2022-08-31T22:58:12.587Z,61.80
2022-08-31T23:00:41.524Z,61.80
2022-08-31T23:03:14.075Z,61.80
2022-08-31T23:05:43.757Z,61.90
2022-08-31T23:08:12.180Z,61.90
2022-08-31T23:10:40.591Z,61.90
2022-08-31T23:13:08.752Z,62.00
2022-08-31T23:15:38.258Z,61.90
2022-08-31T23:18:07.768Z,62.00
2022-08-31T23:20:38.996Z,62.00
2022-08-31T23:23:07.689Z,62.00
2022-08-31T23:25:37.139Z,62.00
2022-08-31T23:28:05.991Z,62.00
2022-08-31T23:30:35.027Z,62.00
2022-08-31T23:33:03.197Z,62.10
2022-08-31T23:35:32.878Z,62.10
2022-08-31T23:38:06.085Z,62.10
2022-08-31T23:40:35.814Z,62.10
2022-08-31T23:43:07.943Z,62.10
2022-08-31T23:45:40.921Z,62.10
2022-08-31T23:48:09.462Z,62.10
2022-08-31T23:50:37.656Z,62.10
2022-08-31T23:53:11.742Z,62.10
2022-08-31T23:55:43.560Z,62.10
2022-08-31T23:58:14.067Z,62.20
